createdAt,value
2022-11-12T00:01:36.034Z,99.90
2022-11-12T00:07:49.726Z,99.90
2022-11-12T00:14:01.755Z,99.90
2022-11-12T00:20:13.967Z,99.90
2022-11-12T00:26:27.125Z,99.90
2022-11-12T00:32:39.388Z,99.90
2022-11-12T00:38:51.396Z,99.90
2022-11-12T00:45:04.947Z,99.90
2022-11-12T00:51:16.491Z,99.90
2022-11-12T00:57:28.938Z,99.90
2022-11-12T01:03:43.174Z,99.90
2022-11-12T01:09:55.217Z,99.90
2022-11-12T01:16:08.311Z,99.90
2022-11-12T01:22:21.809Z,99.90
2022-11-12T01:28:33.826Z,99.90
2022-11-12T01:34:45.736Z,99.90
2022-11-12T01:40:58.912Z,99.90
2022-11-12T01:47:16.235Z,99.90
2022-11-12T01:53:31.319Z,99.90
2022-11-12T01:59:49.256Z,99.90
2022-11-12T02:06:04.418Z,99.90
2022-11-12T02:12:37.529Z,99.90
2022-11-12T02:18:51.068Z,99.90
2022-11-12T02:25:04.475Z,99.90
2022-11-12T02:31:16.675Z,99.90
2022-11-12T02:37:28.545Z,99.90
2022-11-12T02:43:42.421Z,99.90
2022-11-12T02:49:54.796Z,99.90
2022-11-12T02:56:07.190Z,99.90
2022-11-12T03:02:20.569Z,99.90
2022-11-12T03:08:32.932Z,99.90
2022-11-12T03:14:45.139Z,99.90
2022-11-12T03:20:58.653Z,99.90
2022-11-12T03:27:10.713Z,99.90
2022-11-12T03:33:22.559Z,99.90
2022-11-12T03:39:35.683Z,99.90
2022-11-12T03:45:47.724Z,99.90
2022-11-12T03:51:59.613Z,99.90
2022-11-12T03:58:12.798Z,99.90
2022-11-12T04:04:45.063Z,99.90
2022-11-12T04:10:57.236Z,99.90
2022-11-12T04:17:28.120Z,99.90
2022-11-12T04:23:41.350Z,99.90
2022-11-12T04:30:11.520Z,99.90
2022-11-12T04:36:24.710Z,99.90
2022-11-12T04:42:53.624Z,99.90
2022-11-12T04:49:05.626Z,99.90
2022-11-12T04:55:18.619Z,99.90
2022-11-12T05:01:30.728Z,99.90
2022-11-12T05:07:42.232Z,99.90
2022-11-12T05:13:55.531Z,99.90
2022-11-12T05:20:09.359Z,99.90
2022-11-12T05:26:21.377Z,99.90
2022-11-12T05:32:34.453Z,99.90
2022-11-12T05:38:46.638Z,99.90
2022-11-12T05:44:58.568Z,99.90
2022-11-12T05:51:14.084Z,99.90
2022-11-12T05:57:28.393Z,99.90
2022-11-12T06:03:40.169Z,99.90
2022-11-12T06:09:53.706Z,99.90
2022-11-12T06:16:06.235Z,99.90
2022-11-12T06:22:18.359Z,99.90
2022-11-12T06:28:31.898Z,99.90
2022-11-12T06:34:43.609Z,99.90
2022-11-12T06:40:55.549Z,99.90
2022-11-12T06:47:08.610Z,99.90
2022-11-12T06:53:20.490Z,99.90
2022-11-12T06:59:32.666Z,99.90
2022-11-12T07:05:45.902Z,99.90
2022-11-12T07:11:57.912Z,99.90
2022-11-12T07:18:09.878Z,99.90
2022-11-12T07:24:23.276Z,99.90
2022-11-12T07:30:35.620Z,99.90
2022-11-12T07:36:49.063Z,99.90
2022-11-12T07:43:02.781Z,99.90
2022-11-12T07:49:14.594Z,99.90
2022-11-12T07:55:26.754Z,99.90
2022-11-12T08:01:41.789Z,99.90
2022-11-12T08:07:56.939Z,99.90
2022-11-12T08:14:09.310Z,99.90
2022-11-12T08:20:23.195Z,99.90
2022-11-12T08:26:34.930Z,99.90
2022-11-12T08:32:46.736Z,99.90
2022-11-12T08:39:00.101Z,99.90
2022-11-12T08:45:12.640Z,99.90
2022-11-12T08:51:24.527Z,99.90
2022-11-12T08:57:42.967Z,99.90
2022-11-12T09:03:54.894Z,99.90
2022-11-12T09:10:08.444Z,99.90
2022-11-12T09:16:21.517Z,99.90
2022-11-12T09:22:34.878Z,99.90
2022-11-12T09:28:46.332Z,99.90
2022-11-12T09:34:59.612Z,99.90
2022-11-12T09:41:23.928Z,99.90
2022-11-12T09:47:39.761Z,99.90
2022-11-12T09:53:56.851Z,99.90
2022-11-12T10:00:15.432Z,99.90
2022-11-12T10:06:36.083Z,99.90
2022-11-12T10:13:03.645Z,99.90
2022-11-12T10:19:29.565Z,99.90
2022-11-12T10:25:44.738Z,99.90
2022-11-12T10:31:58.301Z,99.90
2022-11-12T10:38:17.217Z,99.90
2022-11-12T10:44:29.436Z,99.90
2022-11-12T10:50:44.372Z,99.90
2022-11-12T10:56:56.716Z,99.90
2022-11-12T11:03:18.312Z,99.90
2022-11-12T11:09:32.589Z,99.90
2022-11-12T11:16:00.343Z,99.90
2022-11-12T11:22:25.202Z,99.90
2022-11-12T11:28:46.835Z,99.90
2022-11-12T11:35:13.878Z,99.90
2022-11-12T11:41:52.085Z,99.90
2022-11-12T11:48:16.636Z,92.60
2022-11-12T11:54:52.735Z,74.10
2022-11-12T12:01:15.210Z,73.40
2022-11-12T12:07:36.011Z,74.20
2022-11-12T12:14:08.695Z,59.60
2022-11-12T12:20:25.256Z,60.50
2022-11-12T12:26:43.255Z,34.10
2022-11-12T12:32:59.968Z,36.50
2022-11-12T12:39:16.400Z,27.00
2022-11-12T12:45:47.927Z,19.30
2022-11-12T12:52:00.288Z,18.60
2022-11-12T12:58:23.007Z,27.20
2022-11-12T13:04:58.132Z,19.50
2022-11-12T13:11:10.630Z,17.90
2022-11-12T13:17:49.196Z,21.50
2022-11-12T13:24:11.293Z,18.60
2022-11-12T13:30:56.800Z,18.90
2022-11-12T13:37:20.993Z,22.20
2022-11-12T13:43:37.139Z,21.70
2022-11-12T13:49:50.071Z,28.10
2022-11-12T13:56:04.524Z,26.90
2022-11-12T14:02:26.694Z,28.10
2022-11-12T14:09:10.675Z,29.20
2022-11-12T14:15:32.813Z,28.10
2022-11-12T14:22:00.365Z,29.00
2022-11-12T14:28:27.367Z,30.30
2022-11-12T14:34:39.136Z,36.30
2022-11-12T14:40:55.297Z,42.10
2022-11-12T14:47:06.954Z,41.90
2022-11-12T14:53:27.481Z,46.50
2022-11-12T14:59:41.402Z,48.30
2022-11-12T15:06:09.403Z,51.00
2022-11-12T15:12:24.393Z,51.40
2022-11-12T15:18:39.409Z,55.40
2022-11-12T15:24:51.370Z,59.90
2022-11-12T15:31:07.205Z,62.40
2022-11-12T15:37:26.526Z,62.40
2022-11-12T15:43:42.841Z,63.10
2022-11-12T15:49:57.634Z,67.50
2022-11-12T15:56:15.602Z,69.60
2022-11-12T16:02:28.128Z,70.70
2022-11-12T16:08:39.922Z,71.40
2022-11-12T16:14:53.381Z,72.00
2022-11-12T16:21:06.813Z,72.70
2022-11-12T16:27:20.844Z,74.60
2022-11-12T16:33:34.236Z,76.60
2022-11-12T16:39:46.325Z,76.20
2022-11-12T16:45:58.071Z,77.00
2022-11-12T16:52:11.489Z,76.00
2022-11-12T16:58:23.632Z,74.10
2022-11-12T17:04:35.393Z,73.60
2022-11-12T17:10:48.965Z,72.20
2022-11-12T17:17:00.958Z,72.80
2022-11-12T17:23:12.780Z,72.40
2022-11-12T17:29:25.955Z,71.50
2022-11-12T17:35:38.105Z,68.50
2022-11-12T17:41:50.058Z,66.10
2022-11-12T17:48:02.990Z,62.10
2022-11-12T17:54:15.333Z,61.10
2022-11-12T18:00:27.456Z,63.90
2022-11-12T18:06:40.796Z,63.30
2022-11-12T18:12:53.506Z,66.10
2022-11-12T18:19:05.992Z,67.60
2022-11-12T18:25:19.594Z,71.50
2022-11-12T18:31:31.608Z,70.00
2022-11-12T18:37:43.787Z,72.80
2022-11-12T18:43:57.909Z,70.70
2022-11-12T18:50:10.908Z,68.50
2022-11-12T18:56:23.628Z,63.50
2022-11-12T19:02:36.405Z,63.80
2022-11-12T19:08:48.660Z,61.40
2022-11-12T19:14:59.953Z,63.70
2022-11-12T19:21:15.366Z,60.60
2022-11-12T19:27:27.587Z,60.30
2022-11-12T19:33:39.392Z,60.30
2022-11-12T19:39:52.668Z,57.50
2022-11-12T19:46:05.150Z,56.60
2022-11-12T19:52:17.143Z,56.00
2022-11-12T19:58:32.052Z,54.10
2022-11-12T20:04:43.565Z,50.70
2022-11-12T20:10:55.373Z,49.30
2022-11-12T20:17:08.520Z,45.50
2022-11-12T20:23:20.868Z,44.10
2022-11-12T20:29:33.127Z,42.30
2022-11-12T20:35:46.613Z,43.80
2022-11-12T20:41:58.366Z,44.50
2022-11-12T20:48:10.303Z,44.00
2022-11-12T20:54:23.673Z,44.60
2022-11-12T21:00:35.824Z,41.80
2022-11-12T21:06:47.739Z,40.10
2022-11-12T21:13:01.050Z,37.00
2022-11-12T21:19:13.244Z,35.40
2022-11-12T21:25:25.089Z,35.40
2022-11-12T21:31:38.274Z,38.10
2022-11-12T21:37:50.289Z,40.70
2022-11-12T21:44:02.229Z,41.50
2022-11-12T21:50:15.603Z,39.20
2022-11-12T21:56:28.489Z,39.60
2022-11-12T22:02:40.430Z,37.00
2022-11-12T22:08:55.701Z,38.80
2022-11-12T22:15:08.442Z,40.10
2022-11-12T22:21:22.710Z,38.50
2022-11-12T22:27:36.152Z,39.40
2022-11-12T22:33:48.928Z,41.00
2022-11-12T22:40:00.993Z,41.10
2022-11-12T22:46:15.999Z,43.40
2022-11-12T22:52:27.825Z,45.40
2022-11-12T22:58:40.210Z,46.30
2022-11-12T23:04:53.625Z,47.30
2022-11-12T23:11:06.355Z,47.50
2022-11-12T23:17:18.220Z,49.00
2022-11-12T23:23:31.370Z,49.00
2022-11-12T23:29:43.453Z,47.10
2022-11-12T23:35:55.387Z,48.00
2022-11-12T23:42:08.536Z,46.20
2022-11-12T23:48:21.411Z,43.70
2022-11-12T23:54:33.542Z,47.00
